Time;durP1;ratioP1;P1;durP2;ratioP2;P2;SDS_P1;SDS_P2;PMS_P1;PMS_P2;Temp;Humidity;BMP_temperature;BMP_pressure;BME280_temperature;BME280_humidity;BME280_pressure;Samples;Min_cycle;Max_cycle;Signal;HPM_P1;HPM_P2
2021/11/15 00:00:24;;;;;;;23.57;15.07;;;8.70;99.90;;;;;;5034323;28;20462;-68
2021/11/15 00:02:50;;;;;;;20.47;15.50;;;8.70;99.90;;;;;;5035582;28;20619;-68
2021/11/15 00:05:16;;;;;;;26.60;16.00;;;8.70;99.90;;;;;;5033605;28;20182;-69
2021/11/15 00:07:42;;;;;;;24.50;16.67;;;8.70;99.90;;;;;;5033687;28;20807;-69
2021/11/15 00:10:09;;;;;;;25.57;15.83;;;8.70;99.90;;;;;;5033520;28;20293;-68
2021/11/15 00:12:35;;;;;;;20.57;14.00;;;8.70;99.90;;;;;;5036849;28;20285;-68
2021/11/15 00:15:00;;;;;;;23.20;15.80;;;8.70;99.90;;;;;;5028952;28;20513;-68
2021/11/15 00:17:27;;;;;;;24.37;15.87;;;8.70;99.90;;;;;;5031591;28;20232;-69
2021/11/15 00:19:52;;;;;;;21.37;15.60;;;8.70;99.90;;;;;;5032391;28;20166;-68
2021/11/15 00:22:18;;;;;;;19.87;14.90;;;8.80;99.90;;;;;;5028533;28;20833;-69
2021/11/15 00:24:44;;;;;;;24.47;15.33;;;8.90;99.90;;;;;;5031634;28;20205;-68
2021/11/15 00:27:09;;;;;;;24.93;15.23;;;8.80;99.90;;;;;;5023260;28;20437;-69
2021/11/15 00:29:35;;;;;;;20.77;15.43;;;8.70;99.90;;;;;;5037317;28;20263;-68
2021/11/15 00:32:01;;;;;;;21.60;14.30;;;8.60;99.90;;;;;;5046992;28;20258;-70
2021/11/15 00:34:26;;;;;;;24.40;15.03;;;8.60;99.90;;;;;;5050131;28;20194;-70
2021/11/15 00:36:52;;;;;;;22.40;16.33;;;8.60;99.90;;;;;;5036070;28;20174;-68
2021/11/15 00:39:17;;;;;;;22.50;16.27;;;8.50;99.90;;;;;;5037777;28;20194;-69
2021/11/15 00:41:44;;;;;;;24.40;16.80;;;8.60;99.90;;;;;;5039462;28;20239;-68
2021/11/15 00:44:10;;;;;;;19.43;14.17;;;8.50;99.90;;;;;;5034238;28;20170;-68
2021/11/15 00:46:36;;;;;;;24.27;15.73;;;8.60;99.90;;;;;;5037160;28;20519;-69
2021/11/15 00:49:02;;;;;;;24.77;14.90;;;8.60;99.90;;;;;;5041667;28;20675;-68
2021/11/15 00:51:29;;;;;;;24.90;16.33;;;8.50;99.90;;;;;;5049352;28;20232;-70
2021/11/15 00:53:57;;;;;;;22.00;15.53;;;8.60;99.90;;;;;;5051054;28;20436;-69
2021/11/15 00:56:23;;;;;;;24.23;15.80;;;8.60;99.90;;;;;;5028805;28;20456;-69
2021/11/15 00:58:49;;;;;;;22.33;15.13;;;8.60;99.90;;;;;;5034690;28;20444;-68
2021/11/15 01:01:15;;;;;;;22.80;15.73;;;8.50;99.90;;;;;;5047493;28;20435;-68
2021/11/15 01:03:41;;;;;;;20.00;15.60;;;8.50;99.90;;;;;;5039737;28;20491;-68
2021/11/15 01:06:06;;;;;;;26.00;15.67;;;8.40;99.90;;;;;;5037121;28;20844;-69
2021/11/15 01:08:32;;;;;;;22.40;14.23;;;8.30;99.90;;;;;;5037790;28;20194;-69
2021/11/15 01:10:58;;;;;;;19.07;13.63;;;8.30;99.90;;;;;;5045784;28;20189;-68
2021/11/15 01:13:25;;;;;;;21.43;14.90;;;8.20;99.90;;;;;;5048196;28;20639;-68
2021/11/15 01:15:50;;;;;;;23.97;15.97;;;8.30;99.90;;;;;;5042467;28;20530;-68
2021/11/15 01:18:17;;;;;;;21.20;14.60;;;8.30;99.90;;;;;;5032108;28;20885;-69
2021/11/15 01:20:42;;;;;;;20.47;15.47;;;8.30;99.90;;;;;;5038114;28;20259;-68
2021/11/15 01:23:09;;;;;;;19.47;13.67;;;8.20;99.90;;;;;;5038207;28;20509;-68
2021/11/15 01:25:37;;;;;;;20.43;13.93;;;8.20;99.90;;;;;;5037877;28;20193;-68
2021/11/15 01:28:03;;;;;;;18.57;14.23;;;8.20;99.90;;;;;;5035271;28;20453;-68
2021/11/15 01:30:29;;;;;;;17.90;13.53;;;8.20;99.90;;;;;;5043476;28;20431;-68
2021/11/15 01:32:55;;;;;;;19.97;15.40;;;8.20;99.90;;;;;;5031889;28;20491;-69
2021/11/15 01:35:22;;;;;;;19.43;13.03;;;8.20;99.90;;;;;;5042576;28;20639;-69
2021/11/15 01:37:48;;;;;;;17.13;11.93;;;8.30;99.90;;;;;;5037390;28;20449;-68
2021/11/15 01:40:20;;;;;;;19.20;13.90;;;8.20;99.90;;;;;;5049793;28;20934;-69
2021/11/15 01:42:46;;;;;;;19.47;12.97;;;8.20;99.90;;;;;;5038068;28;20808;-68
2021/11/15 01:45:16;;;;;;;21.07;14.40;;;8.20;99.90;;;;;;5043125;28;20431;-69
2021/11/15 01:47:43;;;;;;;20.47;14.50;;;8.20;99.90;;;;;;5035184;28;20477;-68
2021/11/15 01:50:11;;;;;;;18.00;13.50;;;8.20;99.90;;;;;;5049950;28;20811;-69
2021/11/15 01:52:38;;;;;;;21.30;12.03;;;8.30;99.90;;;;;;5037086;28;21091;-69
2021/11/15 01:55:06;;;;;;;18.23;12.77;;;8.30;99.90;;;;;;5033664;28;20469;-69
2021/11/15 01:57:31;;;;;;;14.87;11.90;;;8.30;99.90;;;;;;5037610;28;20543;-69
2021/11/15 01:59:57;;;;;;;15.90;11.77;;;8.20;99.90;;;;;;5031906;28;20461;-69
2021/11/15 02:02:26;;;;;;;17.70;11.70;;;8.20;99.90;;;;;;5027345;28;20186;-69
2021/11/15 02:04:55;;;;;;;18.43;11.93;;;8.20;99.90;;;;;;5044386;28;20185;-69
2021/11/15 02:07:20;;;;;;;17.03;11.13;;;8.10;99.90;;;;;;5036807;28;20459;-68
2021/11/15 02:09:46;;;;;;;20.10;12.10;;;8.20;99.90;;;;;;5034592;28;20432;-68
2021/11/15 02:12:12;;;;;;;17.37;11.33;;;8.10;99.90;;;;;;5042986;28;20201;-68
2021/11/15 02:14:38;;;;;;;15.60;10.30;;;8.20;99.90;;;;;;5047319;28;20198;-68
2021/11/15 02:17:04;;;;;;;16.93;11.53;;;8.10;99.90;;;;;;5044526;28;20659;-69
2021/11/15 02:19:32;;;;;;;17.57;10.77;;;8.20;99.90;;;;;;5039656;28;20532;-68
2021/11/15 02:21:58;;;;;;;12.70;10.27;;;8.20;99.90;;;;;;5047881;28;20185;-68
2021/11/15 02:24:24;;;;;;;17.63;11.33;;;8.10;99.90;;;;;;5044148;28;20494;-68
2021/11/15 02:26:50;;;;;;;13.70;9.47;;;8.00;99.90;;;;;;5039820;28;20265;-69
2021/11/15 02:29:15;;;;;;;15.13;11.40;;;8.00;99.90;;;;;;5050360;28;20527;-69
2021/11/15 02:31:41;;;;;;;17.97;10.80;;;8.10;99.90;;;;;;5039617;28;20194;-68
2021/11/15 02:34:10;;;;;;;13.60;9.27;;;8.00;99.90;;;;;;5036902;28;20185;-68
2021/11/15 02:36:38;;;;;;;12.10;9.27;;;8.00;99.90;;;;;;5035924;28;20232;-69
2021/11/15 02:39:04;;;;;;;13.40;8.97;;;8.00;99.90;;;;;;5041622;28;20448;-68
2021/11/15 02:41:30;;;;;;;10.33;8.70;;;8.10;99.90;;;;;;5044022;28;20440;-68
2021/11/15 02:43:55;;;;;;;12.30;9.60;;;8.00;99.90;;;;;;5043192;28;20443;-68
2021/11/15 02:46:21;;;;;;;11.47;9.50;;;8.00;99.90;;;;;;5040814;28;20178;-68
2021/11/15 02:48:47;;;;;;;13.97;9.20;;;8.10;99.90;;;;;;5041154;28;20682;-68
2021/11/15 02:51:13;;;;;;;10.67;9.10;;;8.10;99.90;;;;;;5037783;28;20181;-68
2021/11/15 02:53:39;;;;;;;14.70;9.63;;;8.00;99.90;;;;;;5043809;28;20169;-68
2021/11/15 02:56:06;;;;;;;11.70;8.40;;;8.10;99.90;;;;;;5042209;28;20485;-68
2021/11/15 02:58:32;;;;;;;10.33;8.53;;;8.10;99.90;;;;;;5044498;28;20472;-68
2021/11/15 03:01:05;;;;;;;13.60;9.80;;;8.10;99.90;;;;;;5037375;28;20984;-68
2021/11/15 03:03:31;;;;;;;16.87;10.33;;;8.00;99.90;;;;;;5020429;28;20244;-68
2021/11/15 03:05:57;;;;;;;13.73;8.80;;;8.00;99.90;;;;;;5040996;28;20424;-69
2021/11/15 03:08:23;;;;;;;10.37;8.63;;;8.00;99.90;;;;;;5033520;28;20198;-68
2021/11/15 03:10:52;;;;;;;10.63;8.00;;;8.10;99.90;;;;;;5036249;28;20949;-69
2021/11/15 03:13:19;;;;;;;12.60;8.73;;;8.00;99.90;;;;;;5045173;28;20465;-69
2021/11/15 03:15:49;;;;;;;13.90;11.10;;;7.90;99.90;;;;;;5024339;28;20451;-69
2021/11/15 03:18:22;;;;;;;12.27;8.70;;;7.90;99.90;;;;;;5025617;28;20448;-68
2021/11/15 03:20:51;;;;;;;14.80;9.93;;;7.90;99.90;;;;;;5031420;28;20468;-69
2021/11/15 03:23:20;;;;;;;16.33;10.43;;;7.90;99.90;;;;;;5022228;28;20431;-68
2021/11/15 03:25:47;;;;;;;11.13;9.57;;;7.90;99.90;;;;;;5042258;28;20456;-68
2021/11/15 03:28:17;;;;;;;11.70;9.20;;;7.80;99.90;;;;;;5043644;28;21015;-68
2021/11/15 03:30:44;;;;;;;15.27;10.43;;;7.80;99.90;;;;;;5048281;28;20538;-68
2021/11/15 03:33:11;;;;;;;14.50;9.73;;;7.80;99.90;;;;;;5038694;28;20458;-68
2021/11/15 03:35:38;;;;;;;10.30;9.13;;;7.80;99.90;;;;;;5039291;28;20443;-69
2021/11/15 03:38:04;;;;;;;13.63;9.67;;;7.80;99.90;;;;;;5046854;28;20539;-68
2021/11/15 03:40:30;;;;;;;14.90;10.23;;;7.80;99.90;;;;;;5036985;28;20444;-69
2021/11/15 03:42:59;;;;;;;12.57;9.80;;;7.80;99.90;;;;;;5031625;28;20425;-69
2021/11/15 03:45:26;;;;;;;15.57;11.20;;;7.80;99.90;;;;;;5041806;28;20181;-69
2021/11/15 03:47:52;;;;;;;17.60;10.90;;;7.80;99.90;;;;;;5029158;28;20527;-69
2021/11/15 03:50:18;;;;;;;15.07;10.03;;;7.70;99.90;;;;;;5031527;28;20460;-68
2021/11/15 03:52:45;;;;;;;15.93;11.27;;;7.80;99.90;;;;;;5038430;28;20495;-68
2021/11/15 03:55:15;;;;;;;16.17;10.40;;;7.70;99.90;;;;;;5030486;28;20170;-69
2021/11/15 03:57:41;;;;;;;14.00;9.20;;;7.70;99.90;;;;;;5031196;28;20968;-69
2021/11/15 04:00:11;;;;;;;13.83;10.90;;;7.70;99.90;;;;;;5033866;28;20478;-69
2021/11/15 04:02:38;;;;;;;13.60;10.73;;;7.70;99.90;;;;;;5018794;28;20950;-69
2021/11/15 04:05:06;;;;;;;18.07;11.83;;;7.70;99.90;;;;;;5040630;28;20463;-69
2021/11/15 04:07:41;;;;;;;18.13;10.80;;;7.70;99.90;;;;;;5039995;28;20827;-68
2021/11/15 04:10:11;;;;;;;13.77;9.60;;;7.70;99.90;;;;;;5040624;28;20440;-68
2021/11/15 04:12:37;;;;;;;16.33;10.77;;;7.70;99.90;;;;;;5041353;28;20892;-68
2021/11/15 04:15:04;;;;;;;14.73;9.37;;;7.70;99.90;;;;;;5040226;28;20927;-69
2021/11/15 04:17:30;;;;;;;15.17;10.47;;;7.70;99.90;;;;;;5023326;28;20582;-68
2021/11/15 04:19:55;;;;;;;11.60;10.37;;;7.70;99.90;;;;;;5038291;28;20530;-68
2021/11/15 04:22:21;;;;;;;19.83;10.47;;;7.80;99.90;;;;;;5024021;28;20224;-69
2021/11/15 04:24:48;;;;;;;14.30;9.87;;;7.70;99.90;;;;;;5030246;28;20216;-68
2021/11/15 04:27:14;;;;;;;17.83;11.30;;;7.80;99.90;;;;;;5039359;28;20751;-69
2021/11/15 04:29:40;;;;;;;14.53;11.30;;;7.80;99.90;;;;;;5041965;28;20511;-68
2021/11/15 04:32:07;;;;;;;13.57;10.23;;;7.80;99.90;;;;;;5035892;28;20465;-68
2021/11/15 04:34:33;;;;;;;13.40;9.43;;;7.70;99.90;;;;;;5034561;28;20458;-68
2021/11/15 04:36:59;;;;;;;14.50;10.80;;;7.70;99.90;;;;;;5047131;28;20922;-68
2021/11/15 04:39:24;;;;;;;15.53;11.60;;;7.60;99.90;;;;;;5027608;23;20505;-63
2021/11/15 04:41:50;;;;;;;17.80;12.43;;;7.60;99.90;;;;;;5001183;28;20219;-64
2021/11/15 04:44:15;;;;;;;13.93;10.07;;;7.70;99.90;;;;;;4997278;28;20246;-64
2021/11/15 04:46:41;;;;;;;17.43;11.17;;;7.60;99.90;;;;;;5009964;28;20175;-63
2021/11/15 04:49:08;;;;;;;12.63;9.77;;;7.60;99.90;;;;;;5002796;28;20668;-63
2021/11/15 04:51:34;;;;;;;16.93;10.50;;;7.60;99.90;;;;;;4993159;28;20459;-63
2021/11/15 04:54:01;;;;;;;15.87;9.87;;;7.60;99.90;;;;;;4996074;28;20509;-63
2021/11/15 04:56:26;;;;;;;14.63;10.53;;;7.60;99.90;;;;;;4992400;28;20423;-63
2021/11/15 04:58:53;;;;;;;14.10;10.27;;;7.70;99.90;;;;;;4997872;28;20454;-63
2021/11/15 05:01:18;;;;;;;16.93;10.70;;;7.80;99.90;;;;;;4995700;28;20541;-63
2021/11/15 05:03:44;;;;;;;18.50;11.57;;;7.70;99.90;;;;;;4999283;28;20437;-65
2021/11/15 05:06:10;;;;;;;15.43;10.57;;;7.80;99.90;;;;;;4998638;28;20219;-63
2021/11/15 05:08:36;;;;;;;14.50;10.37;;;7.70;99.90;;;;;;4993442;28;20200;-63
2021/11/15 05:11:02;;;;;;;15.47;10.27;;;7.70;99.90;;;;;;4991680;28;20521;-64
2021/11/15 05:13:28;;;;;;;14.93;11.57;;;7.70;99.90;;;;;;4999904;28;20172;-63
2021/11/15 05:15:53;;;;;;;16.97;11.37;;;7.70;99.90;;;;;;4992852;28;20422;-63
2021/11/15 05:18:19;;;;;;;14.73;10.57;;;7.80;99.90;;;;;;5001900;28;20259;-64
2021/11/15 05:20:44;;;;;;;13.97;11.30;;;7.70;99.90;;;;;;4991668;28;20184;-63
2021/11/15 05:23:10;;;;;;;16.77;10.90;;;7.60;99.90;;;;;;4992064;28;20266;-64
2021/11/15 05:25:35;;;;;;;14.40;11.80;;;7.70;99.90;;;;;;4991847;28;20172;-63
2021/11/15 05:28:01;;;;;;;15.80;11.50;;;7.70;99.90;;;;;;4992602;28;20332;-63
2021/11/15 05:30:26;;;;;;;14.23;10.40;;;7.60;99.90;;;;;;4990190;28;20275;-64
2021/11/15 05:32:55;;;;;;;18.70;13.23;;;7.60;99.90;;;;;;4995623;28;20303;-63
2021/11/15 05:35:21;;;;;;;15.53;11.70;;;7.60;99.90;;;;;;4995323;28;20176;-64
2021/11/15 05:37:49;;;;;;;14.97;11.10;;;7.60;99.90;;;;;;4995350;28;20942;-63
2021/11/15 05:40:15;;;;;;;19.27;12.23;;;7.60;99.90;;;;;;4994945;28;20485;-63
2021/11/15 05:42:40;;;;;;;16.63;11.23;;;7.60;99.90;;;;;;5003080;28;20932;-63
2021/11/15 05:45:07;;;;;;;16.27;11.60;;;7.60;99.90;;;;;;4996277;28;20438;-63
2021/11/15 05:47:32;;;;;;;13.07;11.00;;;7.70;99.90;;;;;;4995491;28;20262;-63
2021/11/15 05:49:58;;;;;;;19.20;10.70;;;7.70;99.90;;;;;;4995885;28;20656;-63
2021/11/15 05:52:23;;;;;;;13.40;10.60;;;7.70;99.90;;;;;;4994036;28;20230;-63
2021/11/15 05:54:51;;;;;;;13.63;10.47;;;7.60;99.90;;;;;;4995170;28;20183;-64
2021/11/15 05:57:17;;;;;;;14.97;11.17;;;7.60;99.90;;;;;;4996058;28;20200;-63
2021/11/15 05:59:43;;;;;;;16.73;10.70;;;7.60;99.90;;;;;;4994768;28;20534;-63
2021/11/15 06:02:09;;;;;;;13.97;10.67;;;7.50;99.90;;;;;;4995404;28;20470;-64
2021/11/15 06:04:35;;;;;;;18.37;11.67;;;7.60;99.90;;;;;;5004315;28;20456;-63
2021/11/15 06:07:00;;;;;;;16.77;11.83;;;7.60;99.90;;;;;;4994675;28;20525;-63
2021/11/15 06:09:26;;;;;;;16.77;10.83;;;7.50;99.90;;;;;;4994224;28;20234;-64
2021/11/15 06:11:51;;;;;;;14.03;10.87;;;7.50;99.90;;;;;;4994627;28;20207;-63
2021/11/15 06:14:17;;;;;;;16.53;12.17;;;7.40;99.90;;;;;;4994317;28;20207;-64
2021/11/15 06:16:43;;;;;;;18.97;11.00;;;7.40;99.90;;;;;;4994493;28;20187;-63
2021/11/15 06:19:08;;;;;;;17.13;10.80;;;7.40;99.90;;;;;;4992575;28;20195;-63
2021/11/15 06:21:34;;;;;;;14.80;11.33;;;7.50;99.90;;;;;;4994826;28;20449;-63
2021/11/15 06:24:01;;;;;;;18.93;12.13;;;7.50;99.90;;;;;;4997323;28;20270;-63
2021/11/15 06:26:28;;;;;;;15.13;10.77;;;7.40;99.90;;;;;;4993906;28;20175;-63
2021/11/15 06:28:54;;;;;;;15.03;11.37;;;7.40;99.90;;;;;;4994696;28;20467;-63
2021/11/15 06:31:20;;;;;;;20.23;11.97;;;7.40;99.90;;;;;;4993559;28;20564;-63
2021/11/15 06:33:49;;;;;;;15.20;10.70;;;7.50;99.90;;;;;;4988106;28;20899;-63
2021/11/15 06:36:16;;;;;;;19.20;10.43;;;7.50;99.90;;;;;;4994227;28;20180;-63
2021/11/15 06:38:42;;;;;;;18.63;12.13;;;7.50;99.90;;;;;;4993621;28;20478;-64
2021/11/15 06:41:07;;;;;;;16.10;11.37;;;7.60;99.90;;;;;;5003549;28;20796;-64
2021/11/15 06:43:33;;;;;;;18.93;10.77;;;7.60;99.90;;;;;;4994077;28;20187;-64
2021/11/15 06:45:58;;;;;;;17.87;12.40;;;7.70;99.90;;;;;;4993164;28;20180;-63
2021/11/15 06:48:24;;;;;;;17.97;11.63;;;7.60;99.90;;;;;;4993771;28;20676;-63
2021/11/15 06:50:50;;;;;;;18.50;11.87;;;7.60;99.90;;;;;;4993841;28;20641;-63
2021/11/15 06:53:16;;;;;;;17.63;12.00;;;7.70;99.90;;;;;;4994039;28;20210;-64
2021/11/15 06:55:43;;;;;;;15.90;12.03;;;7.70;99.90;;;;;;4994038;28;20427;-64
2021/11/15 06:58:08;;;;;;;16.03;12.07;;;7.70;99.90;;;;;;4992659;28;20443;-64
2021/11/15 07:00:34;;;;;;;15.63;11.50;;;7.80;99.90;;;;;;4993604;28;20449;-63
2021/11/15 07:02:59;;;;;;;19.40;12.93;;;7.80;99.90;;;;;;4993631;28;20183;-63
2021/11/15 07:05:26;;;;;;;17.03;12.10;;;7.80;99.90;;;;;;4993662;28;20179;-64
2021/11/15 07:07:54;;;;;;;17.50;11.50;;;7.80;99.90;;;;;;4993363;28;20254;-64
2021/11/15 07:10:19;;;;;;;18.23;13.20;;;7.70;99.90;;;;;;4993424;28;20465;-64
2021/11/15 07:12:46;;;;;;;18.67;13.00;;;7.80;99.90;;;;;;4993291;28;21166;-64
2021/11/15 07:15:13;;;;;;;24.10;15.97;;;7.80;99.90;;;;;;4992989;28;20184;-63
2021/11/15 07:17:39;;;;;;;19.57;13.43;;;7.80;99.90;;;;;;4992932;28;20430;-63
2021/11/15 07:20:06;;;;;;;16.37;11.90;;;7.80;99.90;;;;;;4992204;28;20812;-65
2021/11/15 07:22:32;;;;;;;15.97;12.27;;;7.80;99.90;;;;;;4990266;28;20194;-65
2021/11/15 07:24:58;;;;;;;23.10;12.80;;;7.70;99.90;;;;;;4990452;28;20434;-65
2021/11/15 07:27:24;;;;;;;19.90;13.30;;;7.70;99.90;;;;;;4991422;28;20175;-64
2021/11/15 07:29:50;;;;;;;19.53;12.37;;;7.70;99.90;;;;;;4992621;28;20605;-64
2021/11/15 07:32:16;;;;;;;19.37;11.63;;;7.70;99.90;;;;;;4992639;28;20504;-65
2021/11/15 07:34:42;;;;;;;17.20;12.77;;;7.70;99.90;;;;;;4992177;28;20438;-65
2021/11/15 07:37:09;;;;;;;19.33;11.10;;;7.80;99.90;;;;;;4992863;28;20250;-65
2021/11/15 07:39:42;;;;;;;17.10;12.57;;;7.80;99.90;;;;;;4990976;28;20529;-65
2021/11/15 07:42:11;;;;;;;18.80;12.40;;;7.90;99.90;;;;;;4992987;28;20485;-65
2021/11/15 07:44:37;;;;;;;20.00;13.30;;;8.00;99.90;;;;;;4989899;28;20939;-65
2021/11/15 07:47:03;;;;;;;20.10;12.50;;;8.00;99.90;;;;;;4992491;28;20453;-65
2021/11/15 07:49:29;;;;;;;16.50;11.70;;;8.00;99.90;;;;;;4992007;28;20209;-65
2021/11/15 07:51:54;;;;;;;19.57;11.90;;;7.90;99.90;;;;;;4992579;28;20459;-65
2021/11/15 07:54:20;;;;;;;21.90;14.20;;;7.90;99.90;;;;;;4992746;28;20180;-65
2021/11/15 07:56:45;;;;;;;16.17;12.37;;;7.90;99.90;;;;;;4992774;28;20537;-65
2021/11/15 07:59:11;;;;;;;20.87;12.63;;;7.80;99.90;;;;;;4992239;28;20703;-65
2021/11/15 08:01:36;;;;;;;25.63;15.37;;;7.80;99.90;;;;;;4992457;28;20555;-65
2021/11/15 08:04:02;;;;;;;19.50;13.00;;;7.80;99.90;;;;;;4976453;28;20889;-65
2021/11/15 08:06:27;;;;;;;18.53;12.93;;;7.80;99.90;;;;;;4962827;28;20200;-65
2021/11/15 08:08:53;;;;;;;23.53;13.77;;;7.80;99.90;;;;;;4991059;28;20208;-65
2021/11/15 08:11:19;;;;;;;15.83;12.30;;;7.90;99.90;;;;;;4991944;28;20190;-65
2021/11/15 08:13:46;;;;;;;16.90;12.87;;;7.90;99.90;;;;;;4988411;28;20180;-65
2021/11/15 08:16:11;;;;;;;17.60;11.87;;;7.90;99.90;;;;;;4991887;28;20316;-65
2021/11/15 08:18:37;;;;;;;15.67;12.40;;;7.90;99.90;;;;;;4985389;28;20470;-65
2021/11/15 08:21:08;;;;;;;18.03;12.07;;;7.80;99.90;;;;;;4988701;28;20183;-65
2021/11/15 08:23:34;;;;;;;21.70;13.20;;;7.80;99.90;;;;;;4985564;28;20184;-64
2021/11/15 08:26:34;;;;;;;18.47;12.20;;;7.90;99.90;;;;;;4988781;28;21018;-64
2021/11/15 08:29:03;;;;;;;20.03;12.50;;;8.00;99.90;;;;;;4988017;28;20950;-64
2021/11/15 08:31:29;;;;;;;17.53;12.33;;;8.10;99.90;;;;;;4985290;28;20553;-64
2021/11/15 08:33:55;;;;;;;17.57;12.67;;;8.00;99.90;;;;;;4985181;28;20442;-64
2021/11/15 08:36:21;;;;;;;17.10;11.97;;;8.00;99.90;;;;;;4988884;28;20439;-65
2021/11/15 08:39:04;;;;;;;17.33;11.70;;;8.00;99.90;;;;;;4988584;28;20466;-64
2021/11/15 08:41:33;;;;;;;19.90;12.27;;;8.00;99.90;;;;;;4987836;28;20470;-64
2021/11/15 08:44:00;;;;;;;17.83;11.80;;;8.00;99.90;;;;;;4985556;28;20516;-64
2021/11/15 08:46:29;;;;;;;23.27;12.30;;;8.00;99.90;;;;;;4988644;28;20446;-64
2021/11/15 08:48:56;;;;;;;16.83;11.67;;;7.90;99.90;;;;;;4987419;28;20532;-64
2021/11/15 08:51:23;;;;;;;18.17;12.03;;;7.80;99.90;;;;;;4983676;28;20442;-65
2021/11/15 08:53:50;;;;;;;17.17;11.10;;;7.90;99.90;;;;;;4983911;28;20467;-64
2021/11/15 08:56:17;;;;;;;24.10;14.23;;;7.90;99.90;;;;;;4988910;28;20538;-64
2021/11/15 08:58:43;;;;;;;15.27;12.63;;;8.10;99.90;;;;;;4987878;28;20458;-65
2021/11/15 09:01:09;;;;;;;16.33;12.20;;;8.10;99.90;;;;;;4988275;28;20427;-65
2021/11/15 09:03:38;;;;;;;17.27;12.20;;;8.10;99.90;;;;;;4985024;28;21248;-65
2021/11/15 09:06:07;;;;;;;16.87;12.27;;;8.10;99.90;;;;;;4988195;28;21135;-64
2021/11/15 09:08:33;;;;;;;15.00;11.90;;;8.20;99.90;;;;;;4989977;28;20484;-64
2021/11/15 09:10:59;;;;;;;19.30;13.27;;;8.30;99.90;;;;;;4992125;28;20477;-65
2021/11/15 09:13:25;;;;;;;16.53;11.73;;;8.10;99.90;;;;;;4988533;28;20497;-64
2021/11/15 09:15:51;;;;;;;16.60;12.70;;;8.10;99.90;;;;;;4992659;28;20175;-64
2021/11/15 09:18:16;;;;;;;16.60;11.43;;;8.00;99.90;;;;;;4992087;28;20176;-65
2021/11/15 09:20:42;;;;;;;16.40;12.07;;;8.00;99.90;;;;;;4996333;28;21002;-64
2021/11/15 09:23:08;;;;;;;19.43;12.90;;;8.00;99.90;;;;;;4984553;28;20187;-65
2021/11/15 09:25:35;;;;;;;17.97;12.10;;;8.00;99.90;;;;;;4990095;28;20477;-65
2021/11/15 09:28:01;;;;;;;20.33;13.80;;;7.90;99.90;;;;;;4991809;28;20190;-65
2021/11/15 09:30:27;;;;;;;17.80;13.53;;;7.90;99.90;;;;;;4983615;28;20455;-65
2021/11/15 09:32:52;;;;;;;16.77;12.50;;;7.90;99.90;;;;;;4992335;28;20956;-64
2021/11/15 09:35:19;;;;;;;18.13;13.50;;;7.80;99.90;;;;;;4988550;28;20446;-65
2021/11/15 09:37:45;;;;;;;19.57;12.97;;;7.80;99.90;;;;;;4992301;28;20182;-64
2021/11/15 09:40:11;;;;;;;18.13;13.57;;;7.80;99.90;;;;;;4989587;28;20547;-65
2021/11/15 09:42:38;;;;;;;17.17;14.60;;;7.90;99.90;;;;;;4996548;28;20235;-64
2021/11/15 09:45:07;;;;;;;20.70;15.73;;;7.90;99.90;;;;;;4991479;28;20444;-64
2021/11/15 09:47:33;;;;;;;19.00;15.27;;;8.00;99.90;;;;;;4991205;28;20826;-64
2021/11/15 09:50:02;;;;;;;18.03;14.60;;;8.00;99.90;;;;;;4992413;28;20462;-65
2021/11/15 09:52:27;;;;;;;21.80;16.07;;;8.00;99.90;;;;;;4992107;28;20501;-64
2021/11/15 09:54:53;;;;;;;20.43;14.67;;;8.10;99.90;;;;;;4990836;28;20471;-65
2021/11/15 09:57:19;;;;;;;19.73;14.30;;;8.10;99.90;;;;;;4992492;28;20665;-65
2021/11/15 09:59:45;;;;;;;21.63;17.23;;;8.00;99.90;;;;;;4991761;28;20548;-65
2021/11/15 10:02:11;;;;;;;17.00;14.20;;;8.00;99.90;;;;;;4998199;28;20546;-65
2021/11/15 10:04:38;;;;;;;21.43;16.47;;;8.00;99.90;;;;;;4990712;28;20441;-66
2021/11/15 10:07:03;;;;;;;21.40;16.07;;;7.90;99.90;;;;;;4986001;28;20445;-65
2021/11/15 10:09:31;;;;;;;26.03;16.17;;;8.00;99.90;;;;;;4991561;28;20491;-65
2021/11/15 10:11:59;;;;;;;17.93;14.50;;;8.00;99.90;;;;;;5022528;28;20746;-65
2021/11/15 10:14:25;;;;;;;18.70;15.13;;;7.90;99.90;;;;;;4988158;28;20993;-65
2021/11/15 10:16:59;;;;;;;21.93;17.90;;;7.90;99.90;;;;;;4991372;28;20438;-65
2021/11/15 10:19:25;;;;;;;22.50;15.47;;;7.90;99.90;;;;;;4991141;28;20235;-64
2021/11/15 10:21:58;;;;;;;23.00;17.43;;;7.90;99.90;;;;;;4985332;28;20461;-65
2021/11/15 10:24:31;;;;;;;25.10;18.67;;;8.10;99.90;;;;;;5021181;28;20946;-65
2021/11/15 10:27:04;;;;;;;22.40;17.67;;;8.10;99.90;;;;;;4991352;28;20434;-65
2021/11/15 10:29:34;;;;;;;20.13;17.10;;;8.10;99.90;;;;;;4983519;28;20459;-65
2021/11/15 10:32:08;;;;;;;20.30;16.30;;;8.10;99.90;;;;;;4989270;28;20541;-65
2021/11/15 10:34:36;;;;;;;23.43;18.00;;;8.00;99.90;;;;;;4980428;28;20801;-65
2021/11/15 10:37:04;;;;;;;21.63;15.60;;;8.00;99.90;;;;;;4989759;28;20466;-65
2021/11/15 10:39:43;;;;;;;25.83;17.33;;;8.10;99.90;;;;;;5004747;28;20472;-66
2021/11/15 10:42:26;;;;;;;23.00;16.27;;;8.20;99.90;;;;;;4982483;28;20466;-66
2021/11/15 10:45:06;;;;;;;21.70;17.20;;;8.20;99.90;;;;;;4990618;28;20529;-66
2021/11/15 10:47:33;;;;;;;22.70;17.30;;;8.00;99.90;;;;;;4992075;28;20438;-66
2021/11/15 10:50:15;;;;;;;29.07;16.90;;;8.00;99.90;;;;;;4991346;28;20508;-66
2021/11/15 10:52:42;;;;;;;25.30;19.03;;;7.90;99.90;;;;;;5001256;28;20477;-66
2021/11/15 10:55:08;;;;;;;23.63;18.63;;;7.90;99.90;;;;;;4995208;28;20426;-65
2021/11/15 10:57:37;;;;;;;25.57;17.80;;;7.90;99.90;;;;;;4996158;28;20445;-66
2021/11/15 11:00:06;;;;;;;26.27;18.20;;;8.00;99.90;;;;;;4995768;28;20449;-66
2021/11/15 11:02:37;;;;;;;25.00;18.23;;;8.00;99.90;;;;;;4989006;28;20447;-66
2021/11/15 11:05:11;;;;;;;26.10;17.87;;;7.90;99.90;;;;;;4991657;28;20434;-65
2021/11/15 11:07:39;;;;;;;21.67;16.87;;;7.90;99.90;;;;;;4990424;28;20442;-64
2021/11/15 11:10:12;;;;;;;23.97;18.53;;;7.90;99.90;;;;;;4990239;28;20459;-64
2021/11/15 11:12:46;;;;;;;20.83;15.33;;;8.00;99.90;;;;;;5001166;28;20504;-64
2021/11/15 11:15:34;;;;;;;24.20;17.13;;;8.00;99.90;;;;;;4988868;28;20450;-65
2021/11/15 11:18:12;;;;;;;24.83;16.70;;;7.90;99.90;;;;;;4979904;28;20522;-64
2021/11/15 11:26:17;;;;;;;22.60;16.43;;;7.80;99.90;;;;;;4991752;28;20441;-65
2021/11/15 11:28:47;;;;;;;25.77;17.83;;;7.80;99.90;;;;;;4989775;28;20585;-65
2021/11/15 11:31:15;;;;;;;24.20;17.53;;;7.80;99.90;;;;;;4978746;28;20494;-64
2021/11/15 11:33:42;;;;;;;22.33;17.00;;;7.80;99.90;;;;;;4981082;28;20959;-63
2021/11/15 11:36:09;;;;;;;21.93;15.90;;;7.80;99.90;;;;;;4989519;28;20513;-65
2021/11/15 11:38:36;;;;;;;22.13;16.50;;;7.90;99.90;;;;;;4989240;28;20549;-65
2021/11/15 11:41:02;;;;;;;22.83;16.77;;;8.00;99.90;;;;;;4985899;28;20453;-66
2021/11/15 11:43:28;;;;;;;23.70;18.50;;;8.10;99.90;;;;;;4986435;28;20439;-65
2021/11/15 11:45:54;;;;;;;19.80;15.27;;;8.10;99.90;;;;;;4989218;28;20484;-66
2021/11/15 11:48:20;;;;;;;19.67;17.20;;;8.00;99.90;;;;;;4989356;28;20182;-65
2021/11/15 11:50:48;;;;;;;23.07;16.43;;;7.90;99.90;;;;;;4989256;28;20445;-66
2021/11/15 11:53:24;;;;;;;23.90;16.80;;;7.90;99.90;;;;;;4987198;28;20211;-64
2021/11/15 11:55:50;;;;;;;20.57;15.13;;;7.80;99.90;;;;;;4989355;28;20431;-64
2021/11/15 11:58:34;;;;;;;21.60;15.57;;;7.80;99.90;;;;;;4989654;28;20974;-65
2021/11/15 12:01:04;;;;;;;23.83;15.90;;;7.80;99.90;;;;;;4986882;28;21022;-64
2021/11/15 12:03:31;;;;;;;20.83;16.57;;;7.80;99.90;;;;;;4974789;28;20930;-65
2021/11/15 12:06:20;;;;;;;22.13;17.37;;;7.90;99.90;;;;;;4988773;28;20438;-65
2021/11/15 12:08:53;;;;;;;28.43;19.00;;;8.00;99.90;;;;;;4997102;28;20465;-64
2021/11/15 12:11:29;;;;;;;23.90;16.67;;;8.10;99.90;;;;;;4992515;28;20808;-65
2021/11/15 12:13:56;;;;;;;25.20;16.67;;;8.00;99.90;;;;;;4993479;28;20441;-64
2021/11/15 12:16:24;;;;;;;22.50;16.80;;;7.90;99.90;;;;;;4991650;28;20566;-64
2021/11/15 12:18:54;;;;;;;21.43;16.20;;;7.90;99.90;;;;;;4984897;28;20533;-64
2021/11/15 12:21:21;;;;;;;27.60;18.00;;;7.90;99.90;;;;;;4989589;28;20513;-65
2021/11/15 12:23:55;;;;;;;23.80;18.17;;;7.90;99.90;;;;;;4989678;28;20521;-65
2021/11/15 12:26:39;;;;;;;22.63;17.17;;;8.00;99.90;;;;;;4984802;28;20435;-63
2021/11/15 12:29:26;;;;;;;25.33;18.67;;;7.90;99.90;;;;;;4982269;28;20955;-64
2021/11/15 12:31:58;;;;;;;36.03;20.37;;;7.90;99.90;;;;;;4988097;28;20466;-64
2021/11/15 12:34:29;;;;;;;26.37;18.17;;;7.90;99.90;;;;;;4988848;28;20541;-63
2021/11/15 12:36:57;;;;;;;22.33;17.03;;;7.90;99.90;;;;;;4996172;28;20429;-65
2021/11/15 12:39:26;;;;;;;24.73;16.63;;;7.90;99.90;;;;;;4989144;28;20474;-64
2021/11/15 12:41:54;;;;;;;25.07;17.70;;;7.90;99.90;;;;;;4989240;28;20447;-65
2021/11/15 12:44:36;;;;;;;23.00;16.57;;;7.90;99.90;;;;;;4993219;28;20438;-65